CPA378S WIII-VTBS
Flight info
| Callsign | CPA378S |
|---|---|
| Flight time | 3h 1m |
| Altitude | 40000 |
| Route | DOLTA2A DOLTA G579 SJ B469 VPK M751 VKB M644 ALUMO Y12 ALEMI TUMGA1C |
| Aircraft | A333/H-SDE3GHIJ2J3J5M1RVWXY/LB2D1 |
Departure
| Time | 2026-05-01 11:11 |
|---|---|
| Airport | Soekarno-Hatta International Airport (WIII) |
Arrival
| Time | 2026-05-01 14:12 |
|---|---|
| Airport | Suvarnabhumi Airport (VTBS) |
| Time | Latitude | Longitude | Altitude | Speed | Heading |
|---|---|---|---|---|---|
| 2026-05-01 09:23 | -6.11817 | 106.66305 | 33 ft | 0 kts | 159° |
| 2026-05-01 10:55 | -6.11809 | 106.66302 | 33 ft | 2 kts | 158° |
| 2026-05-01 10:56 | -6.11795 | 106.66296 | 33 ft | 2 kts | 143° |
| 2026-05-01 10:56 | -6.11784 | 106.66286 | 33 ft | 2 kts | 131° |
| 2026-05-01 10:56 | -6.11775 | 106.66273 | 33 ft | 2 kts | 119° |
| 2026-05-01 10:56 | -6.11768 | 106.66259 | 33 ft | 2 kts | 107° |
| 2026-05-01 10:57 | -6.11765 | 106.66245 | 33 ft | 2 kts | 95° |
| 2026-05-01 10:57 | -6.11764 | 106.66229 | 33 ft | 2 kts | 84° |
| 2026-05-01 10:57 | -6.11767 | 106.66215 | 33 ft | 2 kts | 72° |
| 2026-05-01 10:57 | -6.11769 | 106.66209 | 33 ft | 0 kts | 68° |
| 2026-05-01 11:00 | -6.11764 | 106.66222 | 33 ft | 3 kts | 68° |
| 2026-05-01 11:00 | -6.11749 | 106.66257 | 33 ft | 8 kts | 68° |
| 2026-05-01 11:00 | -6.11714 | 106.66344 | 31 ft | 17 kts | 68° |
| 2026-05-01 11:01 | -6.11680 | 106.66414 | 30 ft | 8 kts | 37° |
| 2026-05-01 11:01 | -6.11616 | 106.66403 | 30 ft | 11 kts | 340° |
| 2026-05-01 11:01 | -6.11536 | 106.66372 | 30 ft | 13 kts | 338° |
| 2026-05-01 11:01 | -6.11455 | 106.66340 | 30 ft | 11 kts | 338° |
| 2026-05-01 11:02 | -6.11381 | 106.66310 | 30 ft | 11 kts | 338° |
| 2026-05-01 11:02 | -6.11350 | 106.66264 | 30 ft | 8 kts | 256° |
| 2026-05-01 11:02 | -6.11371 | 106.66201 | 30 ft | 10 kts | 249° |
| 2026-05-01 11:02 | -6.11405 | 106.66113 | 30 ft | 15 kts | 248° |
| 2026-05-01 11:03 | -6.11449 | 106.66005 | 30 ft | 16 kts | 249° |
| 2026-05-01 11:03 | -6.11490 | 106.65899 | 32 ft | 15 kts | 248° |
| 2026-05-01 11:03 | -6.11526 | 106.65808 | 34 ft | 13 kts | 249° |
| 2026-05-01 11:03 | -6.11565 | 106.65710 | 37 ft | 16 kts | 248° |
| 2026-05-01 11:04 | -6.11611 | 106.65595 | 38 ft | 19 kts | 248° |
| 2026-05-01 11:04 | -6.11665 | 106.65457 | 39 ft | 23 kts | 249° |
| 2026-05-01 11:04 | -6.11719 | 106.65320 | 37 ft | 20 kts | 248° |
| 2026-05-01 11:04 | -6.11773 | 106.65185 | 38 ft | 20 kts | 248° |
| 2026-05-01 11:05 | -6.11824 | 106.65056 | 39 ft | 19 kts | 248° |
| 2026-05-01 11:05 | -6.11874 | 106.64928 | 39 ft | 19 kts | 248° |
| 2026-05-01 11:05 | -6.11926 | 106.64796 | 38 ft | 20 kts | 249° |
| 2026-05-01 11:05 | -6.11979 | 106.64662 | 36 ft | 20 kts | 248° |
| 2026-05-01 11:06 | -6.12031 | 106.64530 | 37 ft | 19 kts | 248° |
| 2026-05-01 11:06 | -6.12082 | 106.64404 | 39 ft | 18 kts | 248° |
| 2026-05-01 11:06 | -6.12131 | 106.64285 | 39 ft | 18 kts | 247° |
| 2026-05-01 11:07 | -6.12223 | 106.64055 | 42 ft | 14 kts | 248° |
| 2026-05-01 11:07 | -6.12254 | 106.63971 | 42 ft | 8 kts | 254° |
| 2026-05-01 11:07 | -6.12253 | 106.63913 | 42 ft | 7 kts | 298° |
| 2026-05-01 11:07 | -6.12221 | 106.63889 | 42 ft | 0 kts | 338° |
| 2026-05-01 11:09 | -6.12216 | 106.63887 | 42 ft | 3 kts | 338° |
| 2026-05-01 11:09 | -6.12173 | 106.63882 | 42 ft | 8 kts | 8° |
| 2026-05-01 11:09 | -6.12111 | 106.63907 | 42 ft | 9 kts | 32° |
| 2026-05-01 11:10 | -6.12062 | 106.63981 | 41 ft | 6 kts | 69° |
| 2026-05-01 11:10 | -6.11971 | 106.64210 | 39 ft | 77 kts | 68° |
| 2026-05-01 11:10 | -6.11657 | 106.64999 | 37 ft | 160 kts | 69° |
| 2026-05-01 11:10 | -6.11210 | 106.66151 | 553 ft | 184 kts | 69° |
| 2026-05-01 11:11 | -6.10725 | 106.67405 | 1245 ft | 208 kts | 67° |
| 2026-05-01 11:11 | -6.09851 | 106.68625 | 2207 ft | 222 kts | 37° |
| 2026-05-01 11:11 | -6.08451 | 106.69340 | 2746 ft | 235 kts | 24° |
| 2026-05-01 11:11 | -6.06933 | 106.70145 | 3257 ft | 252 kts | 30° |
| 2026-05-01 11:12 | -6.05374 | 106.71085 | 3852 ft | 265 kts | 31° |
| 2026-05-01 11:12 | -6.03773 | 106.72086 | 4627 ft | 270 kts | 32° |
| 2026-05-01 11:12 | -6.02132 | 106.73126 | 5005 ft | 281 kts | 33° |
| 2026-05-01 11:12 | -6.00477 | 106.74158 | 4918 ft | 276 kts | 28° |
| 2026-05-01 11:13 | -5.98595 | 106.74644 | 4971 ft | 275 kts | 0° |
| 2026-05-01 11:13 | -5.96727 | 106.74213 | 4975 ft | 276 kts | 333° |
| 2026-05-01 11:13 | -5.95257 | 106.72965 | 4974 ft | 277 kts | 306° |
| 2026-05-01 11:13 | -5.94354 | 106.71165 | 5349 ft | 291 kts | 295° |
| 2026-05-01 11:14 | -5.93501 | 106.69334 | 6384 ft | 284 kts | 294° |
| 2026-05-01 11:14 | -5.92665 | 106.67530 | 7107 ft | 288 kts | 294° |
| 2026-05-01 11:14 | -5.91802 | 106.65669 | 7841 ft | 292 kts | 294° |
| 2026-05-01 11:14 | -5.90931 | 106.63794 | 8552 ft | 296 kts | 294° |
| 2026-05-01 11:15 | -5.90052 | 106.61898 | 9293 ft | 298 kts | 294° |
| 2026-05-01 11:15 | -5.89164 | 106.59995 | 9962 ft | 302 kts | 294° |
| 2026-05-01 11:15 | -5.88251 | 106.58034 | 10340 ft | 317 kts | 294° |
| 2026-05-01 11:15 | -5.87263 | 106.55914 | 10348 ft | 344 kts | 294° |
| 2026-05-01 11:16 | -5.86230 | 106.53699 | 10852 ft | 351 kts | 294° |
| 2026-05-01 11:16 | -5.85184 | 106.51455 | 11528 ft | 353 kts | 294° |
| 2026-05-01 11:16 | -5.84135 | 106.49206 | 12101 ft | 357 kts | 294° |
| 2026-05-01 11:16 | -5.83060 | 106.46899 | 12675 ft | 361 kts | 294° |
| 2026-05-01 11:17 | -5.81995 | 106.44609 | 13225 ft | 365 kts | 294° |
| 2026-05-01 11:17 | -5.80904 | 106.42259 | 13827 ft | 367 kts | 294° |
| 2026-05-01 11:17 | -5.79817 | 106.39918 | 14379 ft | 370 kts | 295° |
| 2026-05-01 11:17 | -5.78709 | 106.37530 | 14924 ft | 373 kts | 295° |
| 2026-05-01 11:18 | -5.77610 | 106.35163 | 15428 ft | 376 kts | 295° |
| 2026-05-01 11:18 | -5.76492 | 106.32756 | 15965 ft | 378 kts | 295° |
| 2026-05-01 11:18 | -5.75365 | 106.30334 | 16478 ft | 380 kts | 296° |
| 2026-05-01 11:18 | -5.74092 | 106.27965 | 16967 ft | 381 kts | 307° |
| 2026-05-01 11:19 | -5.72165 | 106.26116 | 17442 ft | 380 kts | 327° |
| 2026-05-01 11:19 | -5.69847 | 106.24804 | 17910 ft | 381 kts | 332° |
| 2026-05-01 11:19 | -5.67477 | 106.23478 | 18330 ft | 385 kts | 332° |
| 2026-05-01 11:19 | -5.65096 | 106.22138 | 18792 ft | 387 kts | 332° |
| 2026-05-01 11:20 | -5.62719 | 106.20797 | 19232 ft | 390 kts | 332° |
| 2026-05-01 11:20 | -5.60313 | 106.19441 | 19624 ft | 393 kts | 332° |
| 2026-05-01 11:20 | -5.57874 | 106.18065 | 19994 ft | 397 kts | 332° |
| 2026-05-01 11:20 | -5.55439 | 106.16688 | 20373 ft | 400 kts | 332° |
| 2026-05-01 11:21 | -5.52976 | 106.15299 | 20749 ft | 402 kts | 332° |
| 2026-05-01 11:21 | -5.50510 | 106.13907 | 21107 ft | 405 kts | 332° |
| 2026-05-01 11:21 | -5.48020 | 106.12501 | 21471 ft | 407 kts | 332° |
| 2026-05-01 11:21 | -5.45520 | 106.11092 | 21831 ft | 409 kts | 332° |
| 2026-05-01 11:22 | -5.43011 | 106.09675 | 22160 ft | 412 kts | 332° |
| 2026-05-01 11:22 | -5.40483 | 106.08248 | 22502 ft | 414 kts | 332° |
| 2026-05-01 11:22 | -5.37926 | 106.06805 | 22887 ft | 415 kts | 332° |
| 2026-05-01 11:22 | -5.35407 | 106.05381 | 23311 ft | 415 kts | 332° |
| 2026-05-01 11:23 | -5.32873 | 106.03950 | 23783 ft | 414 kts | 332° |
| 2026-05-01 11:23 | -5.30324 | 106.02510 | 24267 ft | 412 kts | 332° |
| 2026-05-01 11:23 | -5.27792 | 106.01082 | 24759 ft | 411 kts | 332° |
| 2026-05-01 11:23 | -5.25279 | 105.99662 | 25236 ft | 410 kts | 332° |
| 2026-05-01 11:24 | -5.22798 | 105.98261 | 25711 ft | 409 kts | 332° |
| 2026-05-01 11:24 | -5.20277 | 105.96838 | 26206 ft | 408 kts | 332° |
| 2026-05-01 11:24 | -5.15297 | 105.94025 | 27219 ft | 405 kts | 332° |
| 2026-05-01 11:25 | -5.12833 | 105.92635 | 27692 ft | 404 kts | 332° |
| 2026-05-01 11:25 | -5.07898 | 105.89825 | 28655 ft | 402 kts | 332° |
| 2026-05-01 11:25 | -5.05474 | 105.88443 | 29143 ft | 401 kts | 332° |
| 2026-05-01 11:26 | -5.03027 | 105.87048 | 29630 ft | 400 kts | 332° |
| 2026-05-01 11:26 | -4.98153 | 105.84272 | 30658 ft | 397 kts | 332° |
| 2026-05-01 11:26 | -4.95725 | 105.82890 | 31141 ft | 395 kts | 332° |
| 2026-05-01 11:27 | -4.93330 | 105.81525 | 31650 ft | 393 kts | 332° |
| 2026-05-01 11:27 | -4.90917 | 105.80151 | 32129 ft | 392 kts | 333° |
| 2026-05-01 11:27 | -4.88560 | 105.78809 | 32550 ft | 392 kts | 333° |
| 2026-05-01 11:27 | -4.86175 | 105.77451 | 33060 ft | 391 kts | 332° |
| 2026-05-01 11:28 | -4.83752 | 105.76072 | 33420 ft | 393 kts | 332° |
| 2026-05-01 11:28 | -4.81360 | 105.74710 | 33704 ft | 397 kts | 332° |
| 2026-05-01 11:28 | -4.78941 | 105.73333 | 34023 ft | 400 kts | 332° |
| 2026-05-01 11:29 | -4.73988 | 105.70513 | 34635 ft | 407 kts | 332° |
| 2026-05-01 11:29 | -4.71493 | 105.69093 | 34938 ft | 409 kts | 332° |
| 2026-05-01 11:29 | -4.66472 | 105.66236 | 35533 ft | 415 kts | 332° |
| 2026-05-01 11:30 | -4.63926 | 105.64787 | 35808 ft | 418 kts | 332° |
| 2026-05-01 11:30 | -4.61371 | 105.63334 | 36068 ft | 421 kts | 332° |
| 2026-05-01 11:30 | -4.58803 | 105.61872 | 36328 ft | 423 kts | 332° |
| 2026-05-01 11:30 | -4.56206 | 105.60395 | 36553 ft | 427 kts | 332° |
| 2026-05-01 11:31 | -4.53606 | 105.58916 | 36798 ft | 429 kts | 332° |
| 2026-05-01 11:31 | -4.51002 | 105.57435 | 37025 ft | 432 kts | 332° |
| 2026-05-01 11:31 | -4.48331 | 105.55916 | 37258 ft | 434 kts | 332° |
| 2026-05-01 11:31 | -4.45653 | 105.54393 | 37467 ft | 437 kts | 332° |
| 2026-05-01 11:32 | -4.42986 | 105.52876 | 37674 ft | 439 kts | 332° |
| 2026-05-01 11:32 | -4.40284 | 105.51340 | 37872 ft | 442 kts | 332° |
| 2026-05-01 11:32 | -4.37609 | 105.49818 | 38058 ft | 444 kts | 332° |
| 2026-05-01 11:32 | -4.34883 | 105.48269 | 38237 ft | 446 kts | 332° |
| 2026-05-01 11:33 | -4.32139 | 105.46709 | 38404 ft | 448 kts | 332° |
| 2026-05-01 11:33 | -4.29398 | 105.45152 | 38560 ft | 450 kts | 332° |
| 2026-05-01 11:33 | -4.26646 | 105.43587 | 38706 ft | 452 kts | 332° |
| 2026-05-01 11:33 | -4.23855 | 105.42001 | 38841 ft | 454 kts | 332° |
| 2026-05-01 11:34 | -4.21096 | 105.40434 | 38967 ft | 456 kts | 332° |
| 2026-05-01 11:34 | -4.18293 | 105.38841 | 39091 ft | 458 kts | 332° |
| 2026-05-01 11:34 | -4.15494 | 105.37251 | 39211 ft | 459 kts | 332° |
| 2026-05-01 11:34 | -4.12652 | 105.35635 | 39321 ft | 461 kts | 332° |
| 2026-05-01 11:35 | -4.09851 | 105.34045 | 39399 ft | 462 kts | 332° |
| 2026-05-01 11:35 | -4.07012 | 105.32433 | 39505 ft | 463 kts | 332° |
| 2026-05-01 11:35 | -4.04169 | 105.30817 | 39638 ft | 464 kts | 332° |
| 2026-05-01 11:35 | -4.01365 | 105.29224 | 39802 ft | 463 kts | 332° |
| 2026-05-01 11:36 | -3.98523 | 105.27611 | 39850 ft | 460 kts | 332° |
| 2026-05-01 11:36 | -3.92915 | 105.24427 | 39858 ft | 461 kts | 332° |
| 2026-05-01 11:37 | -3.87236 | 105.21223 | 39852 ft | 466 kts | 332° |
| 2026-05-01 11:37 | -3.81530 | 105.18010 | 39851 ft | 470 kts | 332° |
| 2026-05-01 11:38 | -3.75744 | 105.14753 | 39849 ft | 473 kts | 332° |
| 2026-05-01 11:38 | -3.69942 | 105.11487 | 39852 ft | 476 kts | 332° |
| 2026-05-01 11:39 | -3.64092 | 105.08194 | 39854 ft | 478 kts | 332° |
| 2026-05-01 11:39 | -3.58265 | 105.04914 | 39853 ft | 479 kts | 332° |
| 2026-05-01 11:40 | -3.52374 | 105.01599 | 39852 ft | 479 kts | 332° |
| 2026-05-01 11:40 | -3.46554 | 104.98325 | 39853 ft | 475 kts | 332° |
| 2026-05-01 11:41 | -3.40731 | 104.95049 | 39857 ft | 474 kts | 332° |
| 2026-05-01 11:41 | -3.34929 | 104.91786 | 39859 ft | 475 kts | 332° |
| 2026-05-01 11:42 | -3.29151 | 104.88536 | 39855 ft | 475 kts | 332° |
| 2026-05-01 11:42 | -3.23334 | 104.85266 | 39853 ft | 475 kts | 332° |
| 2026-05-01 11:43 | -3.17537 | 104.82007 | 39855 ft | 475 kts | 332° |
| 2026-05-01 11:43 | -3.11794 | 104.78778 | 39853 ft | 475 kts | 332° |
| 2026-05-01 11:44 | -3.03094 | 104.73888 | 39849 ft | 475 kts | 332° |
| 2026-05-01 11:44 | -2.97307 | 104.70636 | 39840 ft | 475 kts | 332° |
| 2026-05-01 11:45 | -2.91503 | 104.67375 | 39836 ft | 474 kts | 332° |
| 2026-05-01 11:45 | -2.85464 | 104.64735 | 39845 ft | 468 kts | 350° |
| 2026-05-01 11:46 | -2.78992 | 104.63625 | 39821 ft | 470 kts | 351° |
| 2026-05-01 11:46 | -2.72501 | 104.62415 | 39834 ft | 469 kts | 351° |
| 2026-05-01 11:47 | -2.66031 | 104.61194 | 39834 ft | 468 kts | 351° |
| 2026-05-01 11:47 | -2.59607 | 104.59981 | 39833 ft | 468 kts | 351° |
| 2026-05-01 11:48 | -2.53214 | 104.58772 | 39835 ft | 468 kts | 351° |
| 2026-05-01 11:48 | -2.46777 | 104.57555 | 39839 ft | 467 kts | 351° |
| 2026-05-01 11:49 | -2.40325 | 104.56336 | 39843 ft | 467 kts | 351° |
| 2026-05-01 11:49 | -2.33901 | 104.55122 | 39853 ft | 467 kts | 351° |
| 2026-05-01 11:50 | -2.27563 | 104.53925 | 39861 ft | 467 kts | 351° |
| 2026-05-01 11:50 | -2.21082 | 104.52702 | 39863 ft | 467 kts | 351° |
| 2026-05-01 11:51 | -2.14799 | 104.51514 | 39864 ft | 467 kts | 351° |
| 2026-05-01 11:51 | -2.08339 | 104.50294 | 39862 ft | 467 kts | 351° |
| 2026-05-01 11:52 | -2.01894 | 104.49077 | 39866 ft | 467 kts | 351° |
| 2026-05-01 11:52 | -1.95456 | 104.47861 | 39865 ft | 467 kts | 351° |
| 2026-05-01 11:53 | -1.89023 | 104.46646 | 39864 ft | 467 kts | 351° |
| 2026-05-01 11:53 | -1.82530 | 104.45421 | 39864 ft | 467 kts | 351° |
| 2026-05-01 11:54 | -1.76096 | 104.44205 | 39865 ft | 468 kts | 351° |
| 2026-05-01 11:54 | -1.69633 | 104.42986 | 39862 ft | 467 kts | 351° |
| 2026-05-01 11:55 | -1.63207 | 104.41773 | 39860 ft | 468 kts | 351° |
| 2026-05-01 11:55 | -1.56734 | 104.40550 | 39857 ft | 468 kts | 351° |
| 2026-05-01 11:56 | -1.50286 | 104.39334 | 39854 ft | 468 kts | 351° |
| 2026-05-01 11:56 | -1.43908 | 104.38131 | 39852 ft | 468 kts | 351° |
| 2026-05-01 11:57 | -1.37345 | 104.36891 | 39850 ft | 469 kts | 351° |
| 2026-05-01 11:57 | -1.30878 | 104.35671 | 39848 ft | 469 kts | 351° |
| 2026-05-01 11:58 | -1.24456 | 104.34460 | 39841 ft | 469 kts | 351° |
| 2026-05-01 11:59 | -1.14739 | 104.32626 | 39839 ft | 469 kts | 351° |
| 2026-05-01 11:59 | -1.08242 | 104.31401 | 39842 ft | 469 kts | 351° |
| 2026-05-01 12:00 | -0.98484 | 104.29559 | 39841 ft | 470 kts | 351° |
| 2026-05-01 12:01 | -0.88783 | 104.27728 | 39838 ft | 470 kts | 351° |
| 2026-05-01 12:01 | -0.82274 | 104.26501 | 39848 ft | 470 kts | 351° |
| 2026-05-01 12:02 | -0.75767 | 104.25274 | 39857 ft | 470 kts | 351° |
| 2026-05-01 12:02 | -0.69261 | 104.24047 | 39861 ft | 470 kts | 351° |
| 2026-05-01 12:03 | -0.62787 | 104.22825 | 39861 ft | 471 kts | 351° |
| 2026-05-01 12:03 | -0.56280 | 104.21596 | 39861 ft | 470 kts | 351° |
| 2026-05-01 12:04 | -0.49761 | 104.20300 | 39862 ft | 470 kts | 350° |
| 2026-05-01 12:04 | -0.43280 | 104.19015 | 39864 ft | 470 kts | 350° |
| 2026-05-01 12:05 | -0.36787 | 104.17725 | 39863 ft | 470 kts | 350° |
| 2026-05-01 12:05 | -0.27065 | 104.15795 | 39859 ft | 470 kts | 351° |
| 2026-05-01 12:06 | -0.20634 | 104.14520 | 39860 ft | 470 kts | 350° |
| 2026-05-01 12:06 | -0.14153 | 104.13232 | 39860 ft | 469 kts | 351° |
| 2026-05-01 12:07 | -0.07657 | 104.11944 | 39860 ft | 468 kts | 351° |
| 2026-05-01 12:07 | -0.01210 | 104.10664 | 39860 ft | 468 kts | 350° |
| 2026-05-01 12:08 | 0.05244 | 104.09384 | 39863 ft | 468 kts | 351° |
| 2026-05-01 12:08 | 0.11710 | 104.08100 | 39862 ft | 470 kts | 351° |
| 2026-05-01 12:09 | 0.18231 | 104.06805 | 39865 ft | 470 kts | 351° |
| 2026-05-01 12:09 | 0.24666 | 104.05529 | 39866 ft | 468 kts | 351° |
| 2026-05-01 12:10 | 0.34393 | 104.03602 | 39865 ft | 470 kts | 350° |
| 2026-05-01 12:11 | 0.44118 | 104.01673 | 39861 ft | 471 kts | 350° |
| 2026-05-01 12:11 | 0.50636 | 104.00382 | 39863 ft | 472 kts | 351° |
| 2026-05-01 12:12 | 0.57118 | 103.99098 | 39864 ft | 472 kts | 350° |
| 2026-05-01 12:12 | 0.63633 | 103.97804 | 39865 ft | 471 kts | 351° |
| 2026-05-01 12:13 | 0.70060 | 103.96529 | 39866 ft | 471 kts | 350° |
| 2026-05-01 12:13 | 0.76548 | 103.95195 | 39862 ft | 472 kts | 349° |
| 2026-05-01 12:14 | 0.83049 | 103.93821 | 39859 ft | 472 kts | 349° |
| 2026-05-01 12:14 | 0.89534 | 103.92454 | 39859 ft | 474 kts | 349° |
| 2026-05-01 12:15 | 0.96073 | 103.91074 | 39861 ft | 473 kts | 349° |
| 2026-05-01 12:15 | 1.02521 | 103.89711 | 39863 ft | 472 kts | 349° |
| 2026-05-01 12:16 | 1.08993 | 103.88343 | 39865 ft | 472 kts | 349° |
| 2026-05-01 12:16 | 1.15498 | 103.86968 | 39861 ft | 473 kts | 349° |
| 2026-05-01 12:17 | 1.22024 | 103.85892 | 39843 ft | 470 kts | 1° |
| 2026-05-01 12:17 | 1.25285 | 103.86167 | 39877 ft | 469 kts | 13° |
| 2026-05-01 12:17 | 1.28373 | 103.87112 | 39852 ft | 467 kts | 25° |
| 2026-05-01 12:18 | 1.34171 | 103.90044 | 39840 ft | 469 kts | 24° |
| 2026-05-01 12:18 | 1.40234 | 103.92471 | 39843 ft | 467 kts | 20° |
| 2026-05-01 12:19 | 1.43429 | 103.93225 | 39861 ft | 469 kts | 8° |
| 2026-05-01 12:19 | 1.46709 | 103.93273 | 39874 ft | 471 kts | 356° |
| 2026-05-01 12:19 | 1.53285 | 103.92662 | 39856 ft | 473 kts | 357° |
| 2026-05-01 12:20 | 1.59913 | 103.92220 | 39857 ft | 472 kts | 357° |
| 2026-05-01 12:20 | 1.66569 | 103.91785 | 39854 ft | 472 kts | 358° |
| 2026-05-01 12:21 | 1.73161 | 103.91355 | 39861 ft | 473 kts | 358° |
| 2026-05-01 12:21 | 1.79798 | 103.91293 | 39882 ft | 472 kts | 3° |
| 2026-05-01 12:22 | 1.86447 | 103.91496 | 39873 ft | 471 kts | 3° |
| 2026-05-01 12:22 | 1.93076 | 103.91611 | 39861 ft | 471 kts | 357° |
| 2026-05-01 12:23 | 1.99678 | 103.90944 | 39855 ft | 473 kts | 355° |
| 2026-05-01 12:23 | 2.06319 | 103.90299 | 39861 ft | 474 kts | 356° |
| 2026-05-01 12:24 | 2.12906 | 103.89664 | 39864 ft | 473 kts | 356° |
| 2026-05-01 12:24 | 2.19551 | 103.89024 | 39866 ft | 473 kts | 355° |
| 2026-05-01 12:25 | 2.29512 | 103.88066 | 39866 ft | 472 kts | 355° |
| 2026-05-01 12:26 | 2.36125 | 103.87430 | 39865 ft | 472 kts | 355° |
| 2026-05-01 12:26 | 2.42483 | 103.85674 | 39895 ft | 475 kts | 334° |
| 2026-05-01 12:26 | 2.45491 | 103.84178 | 39869 ft | 477 kts | 336° |
| 2026-05-01 12:27 | 2.54619 | 103.79958 | 39871 ft | 476 kts | 336° |
| 2026-05-01 12:28 | 2.63743 | 103.75783 | 39863 ft | 475 kts | 336° |
| 2026-05-01 12:29 | 2.72913 | 103.71590 | 39865 ft | 474 kts | 337° |
| 2026-05-01 12:29 | 2.82081 | 103.67485 | 39864 ft | 474 kts | 337° |
| 2026-05-01 12:30 | 2.91265 | 103.63376 | 39857 ft | 475 kts | 337° |
| 2026-05-01 12:31 | 2.97383 | 103.60654 | 39860 ft | 474 kts | 337° |
| 2026-05-01 12:31 | 3.03523 | 103.57922 | 39860 ft | 474 kts | 337° |
| 2026-05-01 12:32 | 3.09658 | 103.55190 | 39867 ft | 474 kts | 337° |
| 2026-05-01 12:32 | 3.18815 | 103.51099 | 39871 ft | 473 kts | 337° |
| 2026-05-01 12:33 | 3.24898 | 103.48363 | 39876 ft | 474 kts | 337° |
| 2026-05-01 12:33 | 3.30963 | 103.45633 | 39877 ft | 474 kts | 337° |
| 2026-05-01 12:34 | 3.37039 | 103.42901 | 39881 ft | 473 kts | 337° |
| 2026-05-01 12:34 | 3.43229 | 103.40342 | 39886 ft | 472 kts | 340° |
| 2026-05-01 12:35 | 3.49428 | 103.37886 | 39883 ft | 472 kts | 339° |
| 2026-05-01 12:35 | 3.55620 | 103.35427 | 39878 ft | 472 kts | 339° |
| 2026-05-01 12:36 | 3.61850 | 103.32951 | 39875 ft | 472 kts | 339° |
| 2026-05-01 12:36 | 3.68020 | 103.30499 | 39872 ft | 472 kts | 339° |
| 2026-05-01 12:37 | 3.74212 | 103.28038 | 39876 ft | 472 kts | 339° |
| 2026-05-01 12:37 | 3.80384 | 103.25584 | 39875 ft | 472 kts | 339° |
| 2026-05-01 12:38 | 3.86566 | 103.23128 | 39873 ft | 472 kts | 339° |
| 2026-05-01 12:38 | 3.92742 | 103.20672 | 39875 ft | 471 kts | 339° |
| 2026-05-01 12:39 | 3.98945 | 103.18205 | 39877 ft | 473 kts | 339° |
| 2026-05-01 12:39 | 4.05150 | 103.15736 | 39884 ft | 474 kts | 339° |
| 2026-05-01 12:40 | 4.11360 | 103.13266 | 39885 ft | 474 kts | 339° |
| 2026-05-01 12:40 | 4.17547 | 103.10805 | 39886 ft | 473 kts | 339° |
| 2026-05-01 12:41 | 4.23743 | 103.08339 | 39890 ft | 473 kts | 339° |
| 2026-05-01 12:41 | 4.29947 | 103.05869 | 39893 ft | 473 kts | 339° |
| 2026-05-01 12:42 | 4.36145 | 103.03402 | 39897 ft | 474 kts | 339° |
| 2026-05-01 12:42 | 4.42332 | 103.00938 | 39901 ft | 475 kts | 339° |
| 2026-05-01 12:43 | 4.48605 | 102.98441 | 39905 ft | 475 kts | 339° |
| 2026-05-01 12:43 | 4.54836 | 102.95959 | 39910 ft | 474 kts | 339° |
| 2026-05-01 12:44 | 4.61064 | 102.93478 | 39914 ft | 474 kts | 339° |
| 2026-05-01 12:45 | 4.73519 | 102.88515 | 39921 ft | 474 kts | 340° |
| 2026-05-01 12:45 | 4.79760 | 102.86027 | 39925 ft | 474 kts | 339° |
| 2026-05-01 12:46 | 4.85971 | 102.83551 | 39922 ft | 475 kts | 340° |
| 2026-05-01 12:46 | 4.92241 | 102.81059 | 39913 ft | 476 kts | 340° |
| 2026-05-01 12:47 | 4.98463 | 102.78584 | 39902 ft | 475 kts | 340° |
| 2026-05-01 12:47 | 5.04724 | 102.76096 | 39903 ft | 475 kts | 340° |
| 2026-05-01 12:48 | 5.10984 | 102.73605 | 39910 ft | 476 kts | 340° |
| 2026-05-01 12:48 | 5.17251 | 102.71113 | 39914 ft | 477 kts | 340° |
| 2026-05-01 12:49 | 5.23495 | 102.68610 | 39918 ft | 477 kts | 339° |
| 2026-05-01 12:49 | 5.29706 | 102.66102 | 39913 ft | 477 kts | 339° |
| 2026-05-01 12:50 | 5.35956 | 102.63581 | 39907 ft | 477 kts | 339° |
| 2026-05-01 12:50 | 5.42198 | 102.61090 | 39900 ft | 477 kts | 339° |
| 2026-05-01 12:51 | 5.48452 | 102.58593 | 39892 ft | 477 kts | 339° |
| 2026-05-01 12:52 | 5.57876 | 102.54828 | 39884 ft | 478 kts | 339° |
| 2026-05-01 12:52 | 5.67221 | 102.51091 | 39879 ft | 478 kts | 339° |
| 2026-05-01 12:53 | 5.76610 | 102.47336 | 39872 ft | 478 kts | 339° |
| 2026-05-01 12:54 | 5.82933 | 102.44806 | 39867 ft | 478 kts | 339° |
| 2026-05-01 12:54 | 5.92312 | 102.41052 | 39870 ft | 479 kts | 339° |
| 2026-05-01 12:55 | 6.01759 | 102.37270 | 39863 ft | 480 kts | 339° |
| 2026-05-01 12:56 | 6.08019 | 102.34763 | 39862 ft | 480 kts | 339° |
| 2026-05-01 12:56 | 6.14253 | 102.32265 | 39861 ft | 480 kts | 339° |
| 2026-05-01 12:56 | 6.17472 | 102.31194 | 39835 ft | 478 kts | 350° |
| 2026-05-01 12:57 | 6.20807 | 102.30776 | 39912 ft | 476 kts | 355° |
| 2026-05-01 12:57 | 6.30826 | 102.29520 | 39859 ft | 477 kts | 354° |
| 2026-05-01 12:58 | 6.37498 | 102.28754 | 39861 ft | 476 kts | 355° |
| 2026-05-01 12:59 | 6.47464 | 102.27605 | 39861 ft | 476 kts | 355° |
| 2026-05-01 12:59 | 6.57449 | 102.26454 | 39863 ft | 476 kts | 355° |
| 2026-05-01 13:00 | 6.67450 | 102.25300 | 39862 ft | 476 kts | 355° |
| 2026-05-01 13:01 | 6.77425 | 102.24149 | 39866 ft | 476 kts | 354° |
| 2026-05-01 13:02 | 6.87427 | 102.22993 | 39863 ft | 475 kts | 354° |
| 2026-05-01 13:07 | 7.60490 | 102.14541 | 39862 ft | 475 kts | 354° |
| 2026-05-01 13:08 | 7.67178 | 102.13766 | 39861 ft | 474 kts | 354° |
| 2026-05-01 13:08 | 7.73808 | 102.12998 | 39861 ft | 473 kts | 354° |
| 2026-05-01 13:09 | 7.80417 | 102.12231 | 39860 ft | 473 kts | 354° |
| 2026-05-01 13:09 | 7.87041 | 102.11462 | 39861 ft | 474 kts | 354° |
| 2026-05-01 13:10 | 7.93701 | 102.10689 | 39861 ft | 475 kts | 354° |
| 2026-05-01 13:10 | 8.00319 | 102.09922 | 39861 ft | 474 kts | 354° |
| 2026-05-01 13:11 | 8.06986 | 102.09277 | 39864 ft | 473 kts | 356° |
| 2026-05-01 13:11 | 8.13579 | 102.08701 | 39864 ft | 471 kts | 356° |
| 2026-05-01 13:12 | 8.20186 | 102.08122 | 39864 ft | 471 kts | 356° |
| 2026-05-01 13:12 | 8.26813 | 102.07540 | 39865 ft | 471 kts | 356° |
| 2026-05-01 13:13 | 8.33431 | 102.06960 | 39866 ft | 471 kts | 356° |
| 2026-05-01 13:13 | 8.40052 | 102.06379 | 39865 ft | 472 kts | 355° |
| 2026-05-01 13:14 | 8.46649 | 102.05800 | 39863 ft | 471 kts | 355° |
| 2026-05-01 13:14 | 8.53270 | 102.05218 | 39862 ft | 470 kts | 355° |
| 2026-05-01 13:15 | 8.59863 | 102.04639 | 39862 ft | 468 kts | 355° |
| 2026-05-01 13:15 | 8.66403 | 102.04064 | 39863 ft | 468 kts | 355° |
| 2026-05-01 13:16 | 8.72996 | 102.03485 | 39861 ft | 469 kts | 355° |
| 2026-05-01 13:16 | 8.79558 | 102.02907 | 39868 ft | 469 kts | 355° |
| 2026-05-01 13:17 | 8.92732 | 102.01749 | 39869 ft | 468 kts | 355° |
| 2026-05-01 13:18 | 9.02544 | 102.00885 | 39862 ft | 466 kts | 355° |
| 2026-05-01 13:18 | 9.09074 | 102.00310 | 39863 ft | 466 kts | 355° |
| 2026-05-01 13:19 | 9.15581 | 101.99737 | 39864 ft | 467 kts | 355° |
| 2026-05-01 13:20 | 9.25439 | 101.98867 | 39863 ft | 467 kts | 355° |
| 2026-05-01 13:20 | 9.31999 | 101.98292 | 39862 ft | 467 kts | 355° |
| 2026-05-01 13:21 | 9.41829 | 101.97434 | 39862 ft | 467 kts | 355° |
| 2026-05-01 13:21 | 9.48369 | 101.96864 | 39861 ft | 466 kts | 354° |
| 2026-05-01 13:22 | 9.54944 | 101.96289 | 39862 ft | 468 kts | 354° |
| 2026-05-01 13:22 | 9.61501 | 101.95717 | 39862 ft | 468 kts | 354° |
| 2026-05-01 13:23 | 9.68060 | 101.95144 | 39862 ft | 468 kts | 354° |
| 2026-05-01 13:23 | 9.74616 | 101.94571 | 39861 ft | 468 kts | 354° |
| 2026-05-01 13:24 | 9.81142 | 101.94000 | 39861 ft | 469 kts | 354° |
| 2026-05-01 13:25 | 9.91012 | 101.93137 | 39862 ft | 468 kts | 354° |
| 2026-05-01 13:25 | 9.97599 | 101.92561 | 39863 ft | 469 kts | 354° |
| 2026-05-01 13:26 | 10.04176 | 101.91985 | 39863 ft | 470 kts | 354° |
| 2026-05-01 13:26 | 10.10818 | 101.91402 | 39863 ft | 470 kts | 354° |
| 2026-05-01 13:27 | 10.17407 | 101.90826 | 39863 ft | 470 kts | 354° |
| 2026-05-01 13:27 | 10.27276 | 101.89960 | 39862 ft | 470 kts | 354° |
| 2026-05-01 13:28 | 10.37152 | 101.89095 | 39863 ft | 470 kts | 354° |
| 2026-05-01 13:29 | 10.50365 | 101.87934 | 39862 ft | 471 kts | 354° |
| 2026-05-01 13:31 | 10.70037 | 101.86205 | 39866 ft | 471 kts | 354° |
| 2026-05-01 13:32 | 10.86346 | 101.83397 | 39880 ft | 470 kts | 346° |
| 2026-05-01 13:33 | 11.02525 | 101.79697 | 39876 ft | 470 kts | 346° |
| 2026-05-01 13:34 | 11.15449 | 101.76742 | 39868 ft | 470 kts | 346° |
| 2026-05-01 13:35 | 11.25117 | 101.74530 | 39866 ft | 469 kts | 346° |
| 2026-05-01 13:36 | 11.34798 | 101.72313 | 39870 ft | 469 kts | 345° |
| 2026-05-01 13:36 | 11.44442 | 101.70103 | 39866 ft | 469 kts | 345° |
| 2026-05-01 13:37 | 11.50898 | 101.68623 | 39864 ft | 469 kts | 345° |
| 2026-05-01 13:37 | 11.57351 | 101.67143 | 39866 ft | 469 kts | 345° |
| 2026-05-01 13:38 | 11.67010 | 101.64925 | 39864 ft | 469 kts | 345° |
| 2026-05-01 13:39 | 11.73470 | 101.63442 | 39861 ft | 470 kts | 345° |
| 2026-05-01 13:39 | 11.79925 | 101.61959 | 39859 ft | 470 kts | 345° |
| 2026-05-01 13:40 | 11.86349 | 101.60483 | 39859 ft | 470 kts | 345° |
| 2026-05-01 13:40 | 11.92805 | 101.58997 | 39861 ft | 470 kts | 345° |
| 2026-05-01 13:41 | 11.99243 | 101.57516 | 39859 ft | 470 kts | 345° |
| 2026-05-01 13:41 | 12.05714 | 101.56027 | 39860 ft | 469 kts | 345° |
| 2026-05-01 13:41 | 12.08916 | 101.55290 | 39648 ft | 469 kts | 345° |
| 2026-05-01 13:42 | 12.12057 | 101.54566 | 39266 ft | 462 kts | 345° |
| 2026-05-01 13:42 | 12.15232 | 101.53835 | 38925 ft | 454 kts | 345° |
| 2026-05-01 13:42 | 12.18346 | 101.53117 | 38482 ft | 449 kts | 345° |
| 2026-05-01 13:42 | 12.21396 | 101.52413 | 38186 ft | 451 kts | 345° |
| 2026-05-01 13:43 | 12.24517 | 101.51694 | 37898 ft | 455 kts | 345° |
| 2026-05-01 13:43 | 12.27689 | 101.50960 | 37687 ft | 462 kts | 345° |
| 2026-05-01 13:43 | 12.30886 | 101.50224 | 37402 ft | 465 kts | 345° |
| 2026-05-01 13:43 | 12.34063 | 101.49490 | 37096 ft | 462 kts | 345° |
| 2026-05-01 13:44 | 12.37164 | 101.48776 | 36757 ft | 458 kts | 345° |
| 2026-05-01 13:44 | 12.40364 | 101.48035 | 35946 ft | 463 kts | 345° |
| 2026-05-01 13:44 | 12.43518 | 101.47307 | 35281 ft | 461 kts | 345° |
| 2026-05-01 13:44 | 12.46678 | 101.46578 | 34616 ft | 459 kts | 345° |
| 2026-05-01 13:45 | 12.49856 | 101.45844 | 33977 ft | 458 kts | 346° |
| 2026-05-01 13:45 | 12.52968 | 101.45126 | 33334 ft | 457 kts | 346° |
| 2026-05-01 13:45 | 12.56121 | 101.44396 | 32639 ft | 456 kts | 346° |
| 2026-05-01 13:45 | 12.59228 | 101.43677 | 31924 ft | 458 kts | 346° |
| 2026-05-01 13:46 | 12.62342 | 101.42866 | 31202 ft | 458 kts | 342° |
| 2026-05-01 13:46 | 12.65450 | 101.41877 | 30569 ft | 457 kts | 342° |
| 2026-05-01 13:46 | 12.68527 | 101.40916 | 30001 ft | 454 kts | 342° |
| 2026-05-01 13:46 | 12.71562 | 101.39972 | 29461 ft | 451 kts | 342° |
| 2026-05-01 13:47 | 12.74590 | 101.39032 | 28912 ft | 448 kts | 342° |
| 2026-05-01 13:47 | 12.77608 | 101.38096 | 28325 ft | 445 kts | 342° |
| 2026-05-01 13:47 | 12.80618 | 101.37161 | 27710 ft | 443 kts | 343° |
| 2026-05-01 13:47 | 12.83582 | 101.36241 | 27127 ft | 440 kts | 343° |
| 2026-05-01 13:48 | 12.86521 | 101.35329 | 26594 ft | 436 kts | 343° |
| 2026-05-01 13:48 | 12.89453 | 101.34418 | 26090 ft | 432 kts | 342° |
| 2026-05-01 13:48 | 12.92368 | 101.33512 | 25600 ft | 427 kts | 342° |
| 2026-05-01 13:48 | 12.95261 | 101.32613 | 25112 ft | 422 kts | 342° |
| 2026-05-01 13:49 | 12.98059 | 101.31744 | 24621 ft | 418 kts | 342° |
| 2026-05-01 13:49 | 13.00890 | 101.30862 | 24086 ft | 414 kts | 343° |
| 2026-05-01 13:49 | 13.03677 | 101.29997 | 23547 ft | 411 kts | 343° |
| 2026-05-01 13:49 | 13.06462 | 101.29130 | 22993 ft | 408 kts | 343° |
| 2026-05-01 13:50 | 13.09194 | 101.28280 | 22444 ft | 405 kts | 343° |
| 2026-05-01 13:50 | 13.11947 | 101.27423 | 21912 ft | 402 kts | 343° |
| 2026-05-01 13:50 | 13.14651 | 101.26582 | 21390 ft | 399 kts | 343° |
| 2026-05-01 13:50 | 13.17308 | 101.25754 | 20887 ft | 395 kts | 343° |
| 2026-05-01 13:51 | 13.19993 | 101.24918 | 20375 ft | 392 kts | 343° |
| 2026-05-01 13:51 | 13.22636 | 101.24094 | 19876 ft | 388 kts | 343° |
| 2026-05-01 13:51 | 13.25249 | 101.23281 | 19383 ft | 384 kts | 343° |
| 2026-05-01 13:51 | 13.27805 | 101.22485 | 18905 ft | 381 kts | 343° |
| 2026-05-01 13:52 | 13.30363 | 101.21687 | 18421 ft | 377 kts | 343° |
| 2026-05-01 13:52 | 13.32833 | 101.20706 | 17947 ft | 372 kts | 329° |
| 2026-05-01 13:52 | 13.34742 | 101.18986 | 17873 ft | 358 kts | 307° |
| 2026-05-01 13:52 | 13.35973 | 101.16726 | 17545 ft | 358 kts | 287° |
| 2026-05-01 13:53 | 13.36591 | 101.14247 | 17270 ft | 354 kts | 282° |
| 2026-05-01 13:53 | 13.37688 | 101.09299 | 16699 ft | 350 kts | 281° |
| 2026-05-01 13:53 | 13.38206 | 101.06840 | 16422 ft | 348 kts | 281° |
| 2026-05-01 13:54 | 13.38728 | 101.04364 | 16140 ft | 348 kts | 281° |
| 2026-05-01 13:54 | 13.39244 | 101.01899 | 15863 ft | 347 kts | 281° |
| 2026-05-01 13:54 | 13.39751 | 100.99483 | 15590 ft | 345 kts | 281° |
| 2026-05-01 13:54 | 13.40265 | 100.97029 | 15306 ft | 344 kts | 280° |
| 2026-05-01 13:55 | 13.40766 | 100.94638 | 15034 ft | 342 kts | 281° |
| 2026-05-01 13:55 | 13.41272 | 100.92239 | 14761 ft | 341 kts | 281° |
| 2026-05-01 13:55 | 13.42200 | 100.89975 | 14476 ft | 342 kts | 303° |
| 2026-05-01 13:55 | 13.43878 | 100.88168 | 13992 ft | 347 kts | 323° |
| 2026-05-01 13:56 | 13.45961 | 100.86911 | 13518 ft | 346 kts | 328° |
| 2026-05-01 13:56 | 13.48043 | 100.85577 | 13022 ft | 346 kts | 327° |
| 2026-05-01 13:56 | 13.50106 | 100.84231 | 12538 ft | 345 kts | 327° |
| 2026-05-01 13:56 | 13.52092 | 100.82930 | 12457 ft | 330 kts | 327° |
| 2026-05-01 13:57 | 13.54086 | 100.81762 | 12316 ft | 317 kts | 339° |
| 2026-05-01 13:57 | 13.56231 | 100.81393 | 12172 ft | 307 kts | 2° |
| 2026-05-01 13:57 | 13.58350 | 100.81799 | 11770 ft | 306 kts | 16° |
| 2026-05-01 13:57 | 13.60421 | 100.82359 | 11387 ft | 306 kts | 15° |
| 2026-05-01 13:58 | 13.62523 | 100.82932 | 11014 ft | 306 kts | 15° |
| 2026-05-01 13:58 | 13.64555 | 100.83488 | 11023 ft | 292 kts | 15° |
| 2026-05-01 13:58 | 13.66526 | 100.84027 | 11004 ft | 288 kts | 15° |
| 2026-05-01 13:58 | 13.68502 | 100.84567 | 11007 ft | 289 kts | 15° |
| 2026-05-01 13:59 | 13.70475 | 100.85109 | 11008 ft | 288 kts | 15° |
| 2026-05-01 13:59 | 13.72437 | 100.85646 | 11007 ft | 290 kts | 15° |
| 2026-05-01 13:59 | 13.74428 | 100.86192 | 11005 ft | 289 kts | 15° |
| 2026-05-01 13:59 | 13.76410 | 100.86735 | 11008 ft | 290 kts | 15° |
| 2026-05-01 14:00 | 13.78392 | 100.87277 | 11004 ft | 289 kts | 15° |
| 2026-05-01 14:00 | 13.80349 | 100.87814 | 10997 ft | 282 kts | 15° |
| 2026-05-01 14:00 | 13.82238 | 100.88332 | 10993 ft | 271 kts | 15° |
| 2026-05-01 14:00 | 13.84036 | 100.88824 | 10963 ft | 261 kts | 15° |
| 2026-05-01 14:01 | 13.85810 | 100.89311 | 10842 ft | 261 kts | 15° |
| 2026-05-01 14:01 | 13.87645 | 100.89814 | 10516 ft | 276 kts | 14° |
| 2026-05-01 14:01 | 13.89529 | 100.90331 | 10167 ft | 279 kts | 14° |
| 2026-05-01 14:01 | 13.91417 | 100.90847 | 9763 ft | 280 kts | 14° |
| 2026-05-01 14:02 | 13.93338 | 100.91375 | 9323 ft | 278 kts | 14° |
| 2026-05-01 14:02 | 13.95202 | 100.91885 | 8930 ft | 275 kts | 15° |
| 2026-05-01 14:02 | 13.97055 | 100.92395 | 8532 ft | 273 kts | 14° |
| 2026-05-01 14:02 | 13.98923 | 100.92909 | 8117 ft | 270 kts | 14° |
| 2026-05-01 14:03 | 14.00715 | 100.93513 | 7713 ft | 268 kts | 20° |
| 2026-05-01 14:03 | 14.02497 | 100.94043 | 7348 ft | 263 kts | 10° |
| 2026-05-01 14:03 | 14.04313 | 100.93963 | 7049 ft | 260 kts | 341° |
| 2026-05-01 14:03 | 14.05862 | 100.92991 | 6735 ft | 258 kts | 311° |
| 2026-05-01 14:04 | 14.06738 | 100.91386 | 6423 ft | 256 kts | 283° |
| 2026-05-01 14:04 | 14.06776 | 100.89587 | 6066 ft | 252 kts | 253° |
| 2026-05-01 14:04 | 14.05948 | 100.88035 | 5740 ft | 244 kts | 225° |
| 2026-05-01 14:04 | 14.05134 | 100.87215 | 5535 ft | 240 kts | 223° |
| 2026-05-01 14:05 | 14.03552 | 100.85638 | 5290 ft | 229 kts | 223° |
| 2026-05-01 14:05 | 14.02402 | 100.84489 | 5131 ft | 228 kts | 223° |
| 2026-05-01 14:05 | 14.01257 | 100.83344 | 4940 ft | 227 kts | 223° |
| 2026-05-01 14:05 | 14.00067 | 100.82278 | 4908 ft | 221 kts | 212° |
| 2026-05-01 14:06 | 13.98686 | 100.81592 | 4933 ft | 214 kts | 200° |
| 2026-05-01 14:06 | 13.97310 | 100.81112 | 4923 ft | 197 kts | 196° |
| 2026-05-01 14:06 | 13.96039 | 100.80733 | 4906 ft | 186 kts | 195° |
| 2026-05-01 14:06 | 13.94782 | 100.80385 | 4943 ft | 182 kts | 194° |
| 2026-05-01 14:07 | 13.93533 | 100.80049 | 5001 ft | 183 kts | 194° |
| 2026-05-01 14:07 | 13.92288 | 100.79719 | 5065 ft | 182 kts | 194° |
| 2026-05-01 14:07 | 13.91054 | 100.79394 | 5127 ft | 184 kts | 193° |
| 2026-05-01 14:08 | 13.88550 | 100.78736 | 5244 ft | 183 kts | 194° |
| 2026-05-01 14:08 | 13.87272 | 100.78400 | 4881 ft | 197 kts | 194° |
| 2026-05-01 14:08 | 13.85897 | 100.78037 | 4265 ft | 208 kts | 194° |
| 2026-05-01 14:08 | 13.84467 | 100.77659 | 3678 ft | 210 kts | 194° |
| 2026-05-01 14:09 | 13.83044 | 100.77282 | 3111 ft | 211 kts | 194° |
| 2026-05-01 14:09 | 13.81644 | 100.76911 | 2645 ft | 198 kts | 194° |
| 2026-05-01 14:09 | 13.80364 | 100.76572 | 2286 ft | 179 kts | 194° |
| 2026-05-01 14:09 | 13.79218 | 100.76268 | 2072 ft | 160 kts | 194° |
| 2026-05-01 14:10 | 13.78190 | 100.75996 | 1836 ft | 141 kts | 194° |
| 2026-05-01 14:10 | 13.77242 | 100.75884 | 1550 ft | 132 kts | 188° |
| 2026-05-01 14:10 | 13.76376 | 100.75574 | 1640 ft | 129 kts | 198° |
| 2026-05-01 14:10 | 13.75480 | 100.75281 | 1500 ft | 135 kts | 196° |
| 2026-05-01 14:11 | 13.74564 | 100.75028 | 1254 ft | 135 kts | 193° |
| 2026-05-01 14:11 | 13.72740 | 100.74552 | 623 ft | 132 kts | 194° |
| 2026-05-01 14:11 | 13.71829 | 100.74316 | 415 ft | 132 kts | 193° |
| 2026-05-01 14:12 | 13.70934 | 100.74089 | 235 ft | 134 kts | 194° |
| 2026-05-01 14:12 | 13.70029 | 100.73846 | 64 ft | 134 kts | 194° |
| 2026-05-01 14:12 | 13.69202 | 100.73630 | 19 ft | 98 kts | 194° |
| 2026-05-01 14:12 | 13.68702 | 100.73499 | 19 ft | 47 kts | 194° |
| 2026-05-01 14:13 | 13.68481 | 100.73447 | 19 ft | 26 kts | 184° |
| 2026-05-01 14:13 | 13.68371 | 100.73453 | 19 ft | 16 kts | 168° |
| 2026-05-01 14:13 | 13.68252 | 100.73487 | 19 ft | 6 kts | 164° |
| 2026-05-01 14:13 | 13.68226 | 100.73507 | 19 ft | 5 kts | 122° |
| 2026-05-01 14:14 | 13.68227 | 100.73550 | 19 ft | 6 kts | 61° |
| 2026-05-01 14:14 | 13.68272 | 100.73576 | 19 ft | 8 kts | 17° |
| 2026-05-01 14:14 | 13.68333 | 100.73593 | 19 ft | 9 kts | 15° |
| 2026-05-01 14:14 | 13.68406 | 100.73612 | 19 ft | 12 kts | 14° |
| 2026-05-01 14:15 | 13.68507 | 100.73638 | 19 ft | 16 kts | 14° |
| 2026-05-01 14:15 | 13.68630 | 100.73671 | 19 ft | 19 kts | 14° |
| 2026-05-01 14:15 | 13.68763 | 100.73706 | 19 ft | 19 kts | 14° |
| 2026-05-01 14:15 | 13.68896 | 100.73741 | 19 ft | 19 kts | 14° |
| 2026-05-01 14:16 | 13.69029 | 100.73776 | 19 ft | 19 kts | 14° |
| 2026-05-01 14:16 | 13.69161 | 100.73810 | 19 ft | 19 kts | 14° |
| 2026-05-01 14:16 | 13.69291 | 100.73844 | 19 ft | 19 kts | 14° |
| 2026-05-01 14:16 | 13.69420 | 100.73878 | 19 ft | 19 kts | 14° |
| 2026-05-01 14:17 | 13.69547 | 100.73912 | 19 ft | 18 kts | 14° |
| 2026-05-01 14:17 | 13.69675 | 100.73946 | 19 ft | 18 kts | 14° |
| 2026-05-01 14:17 | 13.69801 | 100.73978 | 19 ft | 18 kts | 14° |
| 2026-05-01 14:17 | 13.69891 | 100.74002 | 19 ft | 11 kts | 14° |
| 2026-05-01 14:18 | 13.69951 | 100.74019 | 19 ft | 6 kts | 24° |
| 2026-05-01 14:18 | 13.69967 | 100.74061 | 19 ft | 7 kts | 90° |
| 2026-05-01 14:18 | 13.69959 | 100.74111 | 19 ft | 7 kts | 105° |
| 2026-05-01 14:18 | 13.69949 | 100.74149 | 19 ft | 9 kts | 105° |
| 2026-05-01 14:19 | 13.69922 | 100.74255 | 19 ft | 13 kts | 104° |
| 2026-05-01 14:19 | 13.69898 | 100.74352 | 19 ft | 14 kts | 104° |
| 2026-05-01 14:19 | 13.69877 | 100.74436 | 19 ft | 8 kts | 104° |
| 2026-05-01 14:19 | 13.69840 | 100.74467 | 19 ft | 7 kts | 184° |
| 2026-05-01 14:20 | 13.69786 | 100.74456 | 19 ft | 8 kts | 193° |
| 2026-05-01 14:20 | 13.69657 | 100.74421 | 19 ft | 11 kts | 194° |
| 2026-05-01 14:20 | 13.69571 | 100.74399 | 19 ft | 13 kts | 194° |
| 2026-05-01 14:21 | 13.69471 | 100.74373 | 19 ft | 16 kts | 194° |
| 2026-05-01 14:21 | 13.69354 | 100.74342 | 19 ft | 18 kts | 194° |
| 2026-05-01 14:21 | 13.69248 | 100.74314 | 19 ft | 10 kts | 194° |
| 2026-05-01 14:22 | 13.69163 | 100.74349 | 19 ft | 7 kts | 102° |
| 2026-05-01 14:22 | 13.69153 | 100.74398 | 19 ft | 6 kts | 102° |
| 2026-05-01 14:22 | 13.69143 | 100.74440 | 19 ft | 6 kts | 104° |
| 2026-05-01 14:22 | 13.69119 | 100.74474 | 19 ft | 5 kts | 162° |
| 2026-05-01 14:23 | 13.69076 | 100.74468 | 19 ft | 6 kts | 193° |
| 2026-05-01 14:23 | 13.69020 | 100.74454 | 19 ft | 9 kts | 194° |
| 2026-05-01 14:23 | 13.68962 | 100.74439 | 19 ft | 5 kts | 194° |
| 2026-05-01 14:23 | 13.68946 | 100.74455 | 19 ft | 4 kts | 112° |
| 2026-05-01 14:24 | 13.68937 | 100.74483 | 19 ft | 3 kts | 106° |
| 2026-05-01 14:24 | 13.68930 | 100.74507 | 19 ft | 3 kts | 104° |
| 2026-05-01 14:24 | 13.68927 | 100.74522 | 19 ft | 1 kts | 104° |
| 2026-05-01 14:24 | 13.68925 | 100.74528 | 19 ft | 0 kts | 105° |
| 2026-05-01 14:25 | 13.68925 | 100.74531 | 19 ft | 0 kts | 105° |
| 2026-05-01 14:25 | 13.68924 | 100.74531 | 19 ft | 0 kts | 105° |